createdAt,value
2018-05-25T00:00:54.243Z,46.97
2018-05-25T00:03:21.672Z,47.03
2018-05-25T00:05:49.085Z,47.07
2018-05-25T00:08:16.495Z,47.44
2018-05-25T00:10:43.908Z,47.94
2018-05-25T00:13:11.332Z,47.40
2018-05-25T00:15:38.753Z,47.65
2018-05-25T00:18:06.164Z,47.55
2018-05-25T00:20:33.573Z,47.53
2018-05-25T00:23:00.996Z,48.20
2018-05-25T00:25:28.405Z,47.83
2018-05-25T00:27:55.815Z,47.80
2018-05-25T00:30:23.224Z,47.81
2018-05-25T00:32:50.653Z,48.18
2018-05-25T00:35:18.057Z,48.19
2018-05-25T00:37:45.477Z,48.69
2018-05-25T00:40:12.891Z,48.53
2018-05-25T00:42:40.310Z,48.62
2018-05-25T00:45:07.721Z,48.94
2018-05-25T00:47:35.136Z,49.02
2018-05-25T00:50:02.577Z,48.81
2018-05-25T00:52:29.994Z,49.20
2018-05-25T00:55:09.208Z,49.16
2018-05-25T00:57:36.621Z,49.37
2018-05-25T01:00:04.035Z,49.12
2018-05-25T01:02:31.445Z,49.36
2018-05-25T01:04:58.852Z,49.51
2018-05-25T01:07:26.270Z,49.43
2018-05-25T01:09:53.684Z,49.49
2018-05-25T01:12:21.124Z,49.80
2018-05-25T01:14:48.534Z,49.91
2018-05-25T01:17:15.940Z,50.20
2018-05-25T01:19:43.352Z,49.86
2018-05-25T01:22:10.764Z,49.90
2018-05-25T01:24:38.180Z,50.06
2018-05-25T01:27:05.596Z,50.53
2018-05-25T01:29:33.005Z,50.16
2018-05-25T01:32:00.412Z,50.43
2018-05-25T01:34:27.833Z,50.51
2018-05-25T01:36:55.244Z,50.67
2018-05-25T01:39:22.651Z,51.04
2018-05-25T01:41:50.089Z,50.99
2018-05-25T01:44:17.500Z,51.03
2018-05-25T01:46:44.900Z,51.26
2018-05-25T01:49:12.321Z,51.13
2018-05-25T01:51:39.736Z,51.38
2018-05-25T01:54:07.154Z,51.44
2018-05-25T01:56:34.560Z,51.31
2018-05-25T01:59:01.983Z,51.46
2018-05-25T02:01:29.387Z,51.41
2018-05-25T02:03:56.796Z,51.51
2018-05-25T02:06:24.208Z,51.78
2018-05-25T02:08:51.620Z,52.00
2018-05-25T02:11:19.038Z,52.03
2018-05-25T02:13:46.462Z,52.40
2018-05-25T02:16:13.864Z,52.42
2018-05-25T02:18:41.289Z,52.66
2018-05-25T02:21:08.697Z,52.46
2018-05-25T02:23:36.114Z,52.82
2018-05-25T02:26:03.512Z,53.12
2018-05-25T02:28:30.927Z,53.00
2018-05-25T02:30:58.340Z,52.98
2018-05-25T02:33:25.781Z,53.06
2018-05-25T02:35:53.182Z,53.23
2018-05-25T02:38:20.592Z,53.18
2018-05-25T02:40:48.000Z,53.30
2018-05-25T02:43:15.412Z,53.36
2018-05-25T02:45:42.824Z,53.23
2018-05-25T02:48:10.232Z,53.20
2018-05-25T02:50:37.653Z,53.57
2018-05-25T02:53:05.059Z,53.52
2018-05-25T02:55:32.484Z,53.57
2018-05-25T02:57:59.893Z,53.66
2018-05-25T03:00:27.307Z,53.67
2018-05-25T03:02:54.708Z,53.81
2018-05-25T03:05:22.124Z,53.92
2018-05-25T03:07:49.542Z,53.88
2018-05-25T03:10:16.952Z,53.99
2018-05-25T03:12:44.369Z,54.25
2018-05-25T03:15:11.784Z,54.31
2018-05-25T03:17:39.196Z,54.42
2018-05-25T03:20:06.621Z,54.16
2018-05-25T03:22:34.028Z,54.43
2018-05-25T03:25:01.444Z,54.17
2018-05-25T03:27:28.845Z,54.17
2018-05-25T03:29:56.264Z,54.37
2018-05-25T03:32:23.668Z,54.29
2018-05-25T03:34:51.085Z,54.37
2018-05-25T03:37:18.497Z,54.59
2018-05-25T03:39:45.913Z,54.57
2018-05-25T03:42:13.319Z,54.66
2018-05-25T03:44:40.736Z,54.71
2018-05-25T03:47:08.151Z,54.92
2018-05-25T03:49:35.572Z,54.79
2018-05-25T03:52:02.979Z,55.19
2018-05-25T03:54:30.393Z,55.12
2018-05-25T03:56:57.800Z,55.07
2018-05-25T03:59:37.013Z,55.09
2018-05-25T04:02:04.426Z,54.96
2018-05-25T04:04:31.836Z,55.11
2018-05-25T04:07:00.054Z,55.20
2018-05-25T04:09:27.469Z,55.17
2018-05-25T04:11:54.872Z,55.14
2018-05-25T04:14:22.317Z,55.20
2018-05-25T04:16:49.696Z,54.99
2018-05-25T04:19:17.100Z,54.81
2018-05-25T04:21:44.516Z,54.86
2018-05-25T04:24:11.928Z,54.91
2018-05-25T04:26:39.343Z,54.79
2018-05-25T04:29:06.753Z,54.92
2018-05-25T04:31:34.164Z,55.05
2018-05-25T04:34:01.574Z,55.32
2018-05-25T04:36:28.983Z,55.49
2018-05-25T04:38:56.385Z,55.70
2018-05-25T04:41:23.801Z,55.73
2018-05-25T04:43:51.293Z,55.72
2018-05-25T04:46:18.756Z,55.74
2018-05-25T04:48:46.188Z,55.60
2018-05-25T04:51:13.666Z,55.52
2018-05-25T04:53:41.079Z,55.60
2018-05-25T04:56:08.483Z,55.55
2018-05-25T04:58:35.900Z,55.47
2018-05-25T05:01:03.398Z,55.56
2018-05-25T05:03:30.796Z,55.45
2018-05-25T05:05:58.216Z,55.41
2018-05-25T05:08:25.650Z,55.13
2018-05-25T05:10:53.076Z,54.82
2018-05-25T05:13:20.585Z,54.68
2018-05-25T05:15:48.010Z,54.56
2018-05-25T05:18:15.440Z,54.24
2018-05-25T05:20:42.856Z,53.92
2018-05-25T05:23:10.268Z,53.90
2018-05-25T05:25:37.692Z,53.57
2018-05-25T05:28:05.095Z,53.40
2018-05-25T05:30:32.512Z,53.30
2018-05-25T05:32:59.924Z,53.18
2018-05-25T05:35:27.354Z,53.02
2018-05-25T05:37:54.760Z,53.06
2018-05-25T05:40:22.178Z,52.92
2018-05-25T05:42:49.626Z,52.87
2018-05-25T05:45:17.044Z,52.49
2018-05-25T05:47:44.527Z,52.48
2018-05-25T05:50:11.988Z,52.31
2018-05-25T05:52:39.444Z,51.84
2018-05-25T05:55:06.928Z,51.44
2018-05-25T05:57:34.345Z,51.35
2018-05-25T06:00:01.753Z,51.35
2018-05-25T06:02:29.173Z,50.55
2018-05-25T06:04:56.580Z,50.70
2018-05-25T06:07:24.081Z,50.53
2018-05-25T06:09:51.528Z,50.40
2018-05-25T06:12:18.987Z,50.11
2018-05-25T06:14:46.393Z,50.21
2018-05-25T06:17:13.816Z,50.04
2018-05-25T06:19:41.235Z,49.38
2018-05-25T06:22:08.657Z,48.82
2018-05-25T06:24:36.161Z,48.47
2018-05-25T06:27:03.580Z,48.59
2018-05-25T06:29:31.004Z,48.23
2018-05-25T06:31:58.523Z,47.45
2018-05-25T06:34:25.920Z,47.63
2018-05-25T06:36:53.348Z,47.48
2018-05-25T06:39:20.764Z,47.45
2018-05-25T06:41:48.245Z,47.00
2018-05-25T06:44:15.661Z,46.77
2018-05-25T06:46:43.160Z,46.50
2018-05-25T06:49:10.620Z,45.65
2018-05-25T06:51:38.064Z,45.99
2018-05-25T06:54:05.472Z,45.85
2018-05-25T06:56:32.885Z,45.20
2018-05-25T06:59:00.328Z,44.92
2018-05-25T07:01:27.753Z,44.65
2018-05-25T07:03:55.160Z,44.56
2018-05-25T07:06:22.596Z,44.47
2018-05-25T07:08:50.089Z,43.83
2018-05-25T07:11:17.553Z,43.64
2018-05-25T07:13:44.962Z,43.96
2018-05-25T07:16:12.426Z,43.66
2018-05-25T07:18:39.839Z,43.35
2018-05-25T07:21:07.261Z,43.66
2018-05-25T07:23:34.682Z,43.05
2018-05-25T07:26:02.107Z,42.71
2018-05-25T07:28:29.521Z,42.92
2018-05-25T07:30:56.939Z,42.76
2018-05-25T07:33:24.422Z,42.56
2018-05-25T07:35:51.793Z,41.65
2018-05-25T07:38:19.225Z,41.65
2018-05-25T07:40:46.641Z,41.73
2018-05-25T07:43:14.060Z,41.61
2018-05-25T07:45:41.484Z,41.37
2018-05-25T07:48:08.910Z,40.59
2018-05-25T07:50:36.329Z,40.50
2018-05-25T07:53:03.752Z,40.21
2018-05-25T07:55:31.168Z,39.81
2018-05-25T07:57:58.589Z,38.97
2018-05-25T08:00:26.000Z,39.30
2018-05-25T08:02:53.433Z,38.62
2018-05-25T08:05:20.849Z,38.67
2018-05-25T08:07:48.273Z,38.54
2018-05-25T08:10:15.692Z,38.10
2018-05-25T08:12:43.116Z,37.66
2018-05-25T08:15:10.533Z,36.81
2018-05-25T08:17:37.972Z,37.25
2018-05-25T08:20:05.388Z,36.79
2018-05-25T08:22:32.817Z,36.60
2018-05-25T08:25:00.228Z,36.46
2018-05-25T08:27:27.672Z,36.27
2018-05-25T08:29:55.097Z,35.78
2018-05-25T08:32:22.557Z,35.80
2018-05-25T08:34:49.966Z,35.55
2018-05-25T08:37:17.400Z,35.54
2018-05-25T08:39:44.811Z,35.26
2018-05-25T08:42:12.236Z,34.95
2018-05-25T08:44:39.660Z,34.68
2018-05-25T08:47:07.158Z,34.15
2018-05-25T08:49:34.629Z,33.97
2018-05-25T08:52:02.009Z,33.75
2018-05-25T08:54:29.432Z,33.55
2018-05-25T08:56:56.884Z,33.40
2018-05-25T08:59:24.296Z,33.52
2018-05-25T09:01:51.721Z,33.42
2018-05-25T09:04:19.156Z,33.34
2018-05-25T09:06:46.591Z,32.93
2018-05-25T09:09:14.000Z,32.69
2018-05-25T09:11:41.421Z,32.81
2018-05-25T09:14:08.848Z,32.59
2018-05-25T09:16:36.268Z,32.47
2018-05-25T09:19:04.719Z,32.44
2018-05-25T09:21:32.139Z,32.24
2018-05-25T09:23:59.564Z,32.16
2018-05-25T09:26:27.085Z,31.81
2018-05-25T09:28:54.511Z,31.75
2018-05-25T09:31:21.935Z,31.72
2018-05-25T09:33:49.355Z,31.21
2018-05-25T09:36:16.778Z,31.40
2018-05-25T09:38:44.229Z,30.92
2018-05-25T09:41:11.657Z,29.90
2018-05-25T09:43:39.084Z,30.65
2018-05-25T09:46:06.604Z,30.34
2018-05-25T09:48:34.096Z,30.17
2018-05-25T09:51:01.540Z,30.11
2018-05-25T09:53:28.968Z,30.17
2018-05-25T09:55:56.384Z,29.80
2018-05-25T09:58:23.809Z,29.84
2018-05-25T10:00:51.233Z,29.43
2018-05-25T10:03:18.660Z,29.27
2018-05-25T10:05:46.072Z,29.02
2018-05-25T10:08:13.501Z,28.98
2018-05-25T10:10:40.912Z,28.81
2018-05-25T10:13:08.337Z,28.46
2018-05-25T10:15:35.753Z,28.67
2018-05-25T10:18:03.200Z,28.68
2018-05-25T10:20:30.633Z,28.80
2018-05-25T10:22:58.057Z,28.53
2018-05-25T10:25:25.486Z,28.78
2018-05-25T10:27:52.924Z,28.62
2018-05-25T10:30:20.365Z,28.74
2018-05-25T10:32:47.790Z,28.69
2018-05-25T10:35:15.200Z,28.54
2018-05-25T10:37:42.632Z,28.28
2018-05-25T10:40:10.059Z,28.06
2018-05-25T10:42:37.479Z,27.87
2018-05-25T10:45:04.921Z,27.70
2018-05-25T10:47:32.340Z,27.24
2018-05-25T10:49:59.761Z,27.39
2018-05-25T10:52:27.179Z,27.30
2018-05-25T10:54:54.602Z,27.18
2018-05-25T10:57:22.015Z,27.04
2018-05-25T10:59:49.438Z,26.60
2018-05-25T11:02:16.864Z,26.68
2018-05-25T11:04:44.290Z,26.43
2018-05-25T11:07:11.709Z,26.68
2018-05-25T11:09:39.141Z,26.27
2018-05-25T11:12:06.563Z,26.08
2018-05-25T11:14:33.991Z,25.70
2018-05-25T11:17:01.418Z,26.17
2018-05-25T11:19:28.836Z,25.95
2018-05-25T11:21:56.250Z,26.06
2018-05-25T11:24:23.686Z,25.70
2018-05-25T11:26:51.092Z,25.81
2018-05-25T11:29:18.512Z,25.70
2018-05-25T11:31:45.930Z,25.56
2018-05-25T11:34:13.384Z,25.31
2018-05-25T11:36:40.796Z,25.27
2018-05-25T11:39:08.229Z,25.04
2018-05-25T11:41:35.644Z,24.91
2018-05-25T11:44:03.064Z,24.75
2018-05-25T11:46:30.494Z,24.63
2018-05-25T11:48:57.937Z,24.44
2018-05-25T11:51:26.316Z,24.50
2018-05-25T11:53:53.748Z,24.36
2018-05-25T11:56:21.173Z,24.43
2018-05-25T11:58:48.597Z,24.54
2018-05-25T12:01:16.028Z,24.48
2018-05-25T12:03:43.487Z,24.15
2018-05-25T12:06:10.952Z,24.14
2018-05-25T12:08:38.376Z,24.14
2018-05-25T12:11:05.869Z,23.86
2018-05-25T12:13:33.313Z,23.78
2018-05-25T12:16:00.768Z,24.09
2018-05-25T12:18:28.192Z,24.03
2018-05-25T12:20:55.684Z,23.95
2018-05-25T12:23:23.104Z,23.25
2018-05-25T12:25:50.596Z,24.01
2018-05-25T12:28:18.013Z,23.86
2018-05-25T12:30:45.441Z,23.79
2018-05-25T12:33:12.956Z,23.73
2018-05-25T12:35:40.397Z,24.13
2018-05-25T12:38:07.817Z,24.30
2018-05-25T12:40:35.313Z,24.37
2018-05-25T12:43:02.789Z,24.36
2018-05-25T12:45:30.233Z,24.38
2018-05-25T12:47:57.659Z,24.67
2018-05-25T12:50:25.176Z,25.25
2018-05-25T12:52:52.599Z,25.55
2018-05-25T12:55:20.055Z,25.87
2018-05-25T12:57:47.480Z,26.05
2018-05-25T13:00:14.904Z,26.43
2018-05-25T13:02:42.315Z,26.57
2018-05-25T13:05:09.776Z,26.55
2018-05-25T13:07:37.241Z,26.43
2018-05-25T13:10:04.660Z,26.55
2018-05-25T13:12:32.145Z,26.84
2018-05-25T13:14:59.605Z,27.08
2018-05-25T13:17:27.032Z,26.96
2018-05-25T13:19:54.451Z,26.61
2018-05-25T13:22:21.876Z,26.57
2018-05-25T13:24:49.302Z,26.65
2018-05-25T13:27:16.725Z,26.55
2018-05-25T13:29:44.148Z,26.16
2018-05-25T13:32:11.569Z,26.45
2018-05-25T13:34:39.008Z,26.49
2018-05-25T13:37:06.420Z,26.48
2018-05-25T13:39:33.850Z,26.25
2018-05-25T13:42:01.274Z,25.92
2018-05-25T13:44:28.766Z,25.88
2018-05-25T13:46:56.227Z,25.79
2018-05-25T13:49:23.668Z,25.81
2018-05-25T13:51:51.096Z,25.62
2018-05-25T13:54:18.580Z,25.78
2018-05-25T13:56:46.004Z,25.93
2018-05-25T13:59:13.492Z,25.55
2018-05-25T14:01:40.916Z,25.40
2018-05-25T14:04:08.418Z,25.64
2018-05-25T14:06:35.867Z,25.71
2018-05-25T14:09:03.284Z,25.69
2018-05-25T14:11:30.788Z,25.38
2018-05-25T14:13:58.196Z,25.53
2018-05-25T14:16:25.687Z,25.48
2018-05-25T14:18:53.137Z,25.38
2018-05-25T14:21:20.561Z,25.50
2018-05-25T14:23:47.976Z,25.28
2018-05-25T14:26:15.521Z,25.46
2018-05-25T14:28:42.933Z,25.29
2018-05-25T14:31:10.405Z,25.34
2018-05-25T14:33:37.808Z,25.43
2018-05-25T14:36:05.284Z,25.39
2018-05-25T14:38:32.792Z,25.54
2018-05-25T14:41:00.237Z,25.79
2018-05-25T14:43:27.705Z,25.83
2018-05-25T14:45:55.136Z,25.96
2018-05-25T14:48:22.553Z,25.68
2018-05-25T14:50:50.027Z,25.92
2018-05-25T14:53:17.476Z,26.10
2018-05-25T14:55:44.888Z,26.09
2018-05-25T14:58:12.311Z,26.38
2018-05-25T15:00:39.740Z,26.65
2018-05-25T15:03:07.252Z,26.88
2018-05-25T15:05:34.697Z,26.69
2018-05-25T15:08:02.121Z,26.69
2018-05-25T15:10:29.549Z,26.63
2018-05-25T15:12:57.057Z,26.81
2018-05-25T15:15:24.473Z,27.00
2018-05-25T15:17:51.975Z,26.81
2018-05-25T15:20:19.412Z,26.88
2018-05-25T15:22:46.823Z,26.92
2018-05-25T15:25:14.245Z,26.94
2018-05-25T15:27:41.672Z,27.15
2018-05-25T15:30:09.095Z,27.16
2018-05-25T15:32:36.769Z,27.23
2018-05-25T15:35:04.028Z,27.41
2018-05-25T15:37:31.452Z,27.43
2018-05-25T15:39:58.877Z,27.54
2018-05-25T15:42:26.304Z,27.70
2018-05-25T15:44:53.728Z,27.79
2018-05-25T15:47:21.172Z,27.69
2018-05-25T15:49:48.596Z,27.84
2018-05-25T15:52:16.029Z,27.80
2018-05-25T15:54:43.448Z,27.76
2018-05-25T15:57:10.880Z,27.77
2018-05-25T15:59:38.300Z,27.89
2018-05-25T16:02:05.724Z,28.01
2018-05-25T16:04:33.153Z,28.16
2018-05-25T16:07:00.580Z,28.12
2018-05-25T16:09:28.006Z,28.24
2018-05-25T16:11:55.423Z,28.22
2018-05-25T16:14:22.844Z,27.84
2018-05-25T16:16:50.273Z,28.14
2018-05-25T16:19:17.684Z,27.96
2018-05-25T16:21:45.197Z,27.93
2018-05-25T16:24:12.612Z,27.34
2018-05-25T16:26:40.044Z,27.62
2018-05-25T16:29:07.463Z,27.56
2018-05-25T16:31:34.897Z,27.44
2018-05-25T16:34:02.308Z,27.35
2018-05-25T16:36:29.742Z,27.53
2018-05-25T16:38:57.159Z,27.39
2018-05-25T16:41:24.582Z,27.59
2018-05-25T16:43:51.996Z,27.69
2018-05-25T16:46:19.416Z,27.85
2018-05-25T16:48:46.839Z,28.27
2018-05-25T16:51:14.264Z,28.60
2018-05-25T16:53:41.725Z,29.37
2018-05-25T16:56:09.136Z,29.30
2018-05-25T16:58:36.632Z,29.61
2018-05-25T17:01:04.048Z,30.07
2018-05-25T17:03:31.476Z,30.58
2018-05-25T17:05:58.923Z,30.60
2018-05-25T17:08:26.320Z,30.79
2018-05-25T17:10:53.732Z,31.20
2018-05-25T17:13:21.260Z,31.31
2018-05-25T17:15:48.680Z,31.70
2018-05-25T17:18:16.105Z,31.90
2018-05-25T17:20:43.528Z,32.05
2018-05-25T17:23:10.951Z,32.21
2018-05-25T17:25:38.360Z,32.41
2018-05-25T17:28:05.792Z,33.09
2018-05-25T17:30:33.231Z,32.70
2018-05-25T17:33:00.671Z,33.06
2018-05-25T17:35:28.161Z,33.12
2018-05-25T17:37:55.574Z,33.18
2018-05-25T17:40:22.991Z,33.28
2018-05-25T17:42:50.520Z,33.54
2018-05-25T17:45:17.933Z,33.65
2018-05-25T17:47:45.360Z,33.83
2018-05-25T17:50:12.774Z,33.95
2018-05-25T17:52:40.191Z,34.22
2018-05-25T17:55:07.605Z,34.68
2018-05-25T17:57:35.045Z,34.84
2018-05-25T18:00:02.504Z,34.91
2018-05-25T18:02:29.928Z,35.00
2018-05-25T18:04:57.413Z,35.09
2018-05-25T18:07:24.866Z,35.23
2018-05-25T18:09:52.271Z,35.64
2018-05-25T18:12:19.684Z,35.78
2018-05-25T18:14:47.105Z,36.08
2018-05-25T18:17:14.522Z,36.62
2018-05-25T18:19:41.928Z,36.48
2018-05-25T18:22:09.353Z,36.50
2018-05-25T18:24:36.768Z,36.91
2018-05-25T18:27:04.200Z,37.07
2018-05-25T18:29:31.607Z,37.44
2018-05-25T18:31:59.029Z,38.06
2018-05-25T18:34:26.440Z,37.75
2018-05-25T18:36:53.844Z,38.66
2018-05-25T18:39:21.274Z,38.81
2018-05-25T18:41:48.677Z,38.48
2018-05-25T18:44:16.099Z,39.04
2018-05-25T18:46:43.512Z,39.22
2018-05-25T18:49:10.924Z,39.39
2018-05-25T18:51:38.349Z,39.51
2018-05-25T18:54:17.569Z,39.85
2018-05-25T18:56:44.977Z,39.96
2018-05-25T18:59:12.395Z,40.09
2018-05-25T19:01:39.852Z,40.28
2018-05-25T19:04:07.274Z,40.39
2018-05-25T19:06:34.723Z,40.63
2018-05-25T19:09:02.161Z,40.79
2018-05-25T19:11:29.712Z,41.00
2018-05-25T19:13:57.131Z,41.21
2018-05-25T19:16:24.546Z,41.19
2018-05-25T19:18:52.045Z,41.47
2018-05-25T19:21:19.496Z,41.21
2018-05-25T19:23:46.915Z,41.20
2018-05-25T19:26:14.325Z,41.37
2018-05-25T19:28:41.756Z,41.52
2018-05-25T19:31:09.153Z,41.61
2018-05-25T19:33:36.569Z,41.70
2018-05-25T19:36:03.980Z,41.70
2018-05-25T19:38:31.392Z,41.82
2018-05-25T19:40:58.800Z,42.16
2018-05-25T19:43:26.216Z,42.45
2018-05-25T19:45:53.625Z,42.87
2018-05-25T19:48:21.044Z,42.60
2018-05-25T19:50:48.460Z,42.64
2018-05-25T19:53:15.884Z,42.82
2018-05-25T19:55:43.301Z,42.77
2018-05-25T19:58:12.407Z,42.87
2018-05-25T20:00:43.014Z,42.93
2018-05-25T20:03:11.746Z,43.02
2018-05-25T20:05:40.429Z,43.17
2018-05-25T20:08:08.215Z,43.37
2018-05-25T20:10:35.615Z,43.39
2018-05-25T20:13:05.111Z,43.74
2018-05-25T20:15:32.511Z,43.62
2018-05-25T20:17:59.928Z,43.83
2018-05-25T20:20:27.351Z,43.79
2018-05-25T20:22:54.757Z,43.89
2018-05-25T20:25:22.178Z,43.96
2018-05-25T20:27:49.608Z,43.98
2018-05-25T20:30:17.022Z,44.01
2018-05-25T20:32:44.432Z,44.07
2018-05-25T20:35:11.848Z,44.25
2018-05-25T20:37:39.256Z,44.26
2018-05-25T20:40:06.676Z,44.36
2018-05-25T20:42:34.108Z,44.45
2018-05-25T20:45:01.520Z,44.60
2018-05-25T20:47:29.047Z,44.63
2018-05-25T20:49:56.464Z,44.66
2018-05-25T20:52:23.885Z,44.69
2018-05-25T20:54:51.316Z,44.86
2018-05-25T20:57:18.728Z,44.84
2018-05-25T20:59:46.149Z,44.97
2018-05-25T21:02:13.554Z,45.04
2018-05-25T21:04:40.965Z,45.25
2018-05-25T21:07:08.374Z,45.29
2018-05-25T21:09:35.802Z,45.39
2018-05-25T21:12:03.211Z,45.62
2018-05-25T21:14:30.629Z,45.79
2018-05-25T21:16:58.040Z,45.76
2018-05-25T21:19:25.479Z,45.75
2018-05-25T21:21:52.872Z,45.93
2018-05-25T21:24:20.281Z,45.95
2018-05-25T21:26:47.689Z,46.06
2018-05-25T21:29:15.113Z,46.10
2018-05-25T21:31:42.521Z,46.09
2018-05-25T21:34:09.941Z,46.06
2018-05-25T21:36:37.340Z,46.19
2018-05-25T21:39:05.672Z,46.27
2018-05-25T21:41:33.077Z,46.44
2018-05-25T21:44:00.494Z,46.49
2018-05-25T21:46:27.902Z,46.90
2018-05-25T21:48:55.320Z,47.10
2018-05-25T21:51:22.724Z,46.90
2018-05-25T21:53:50.168Z,47.37
2018-05-25T21:56:17.589Z,47.51
2018-05-25T21:58:44.996Z,47.71
2018-05-25T22:01:12.408Z,48.22
2018-05-25T22:03:39.822Z,48.30
2018-05-25T22:06:07.235Z,48.69
2018-05-25T22:08:34.636Z,49.02
2018-05-25T22:11:02.061Z,49.25
2018-05-25T22:13:29.468Z,49.31
2018-05-25T22:15:56.881Z,49.21
2018-05-25T22:18:24.292Z,49.61
2018-05-25T22:20:51.704Z,49.99
2018-05-25T22:23:19.116Z,50.48
2018-05-25T22:25:46.537Z,51.28
2018-05-25T22:28:13.936Z,51.44
2018-05-25T22:30:41.353Z,51.36
2018-05-25T22:33:08.767Z,51.35
2018-05-25T22:35:36.180Z,51.65
2018-05-25T22:38:03.584Z,51.89
2018-05-25T22:40:31.008Z,51.92
2018-05-25T22:43:10.208Z,52.50
2018-05-25T22:45:49.241Z,52.30
2018-05-25T22:48:28.449Z,53.14
2018-05-25T22:51:07.629Z,53.60
2018-05-25T22:56:33.843Z,53.79
2018-05-25T22:59:01.260Z,54.40
2018-05-25T23:01:28.684Z,54.45
2018-05-25T23:03:56.096Z,54.53
2018-05-25T23:06:23.504Z,54.62
2018-05-25T23:08:50.908Z,54.86
2018-05-25T23:11:18.320Z,54.76
2018-05-25T23:13:45.731Z,55.42
2018-05-25T23:16:13.146Z,55.53
2018-05-25T23:18:40.591Z,55.71
2018-05-25T23:21:07.971Z,56.11
2018-05-25T23:23:35.381Z,55.98
2018-05-25T23:26:02.792Z,56.26
2018-05-25T23:28:30.197Z,56.60
2018-05-25T23:30:57.609Z,56.62
2018-05-25T23:33:25.022Z,57.65
2018-05-25T23:35:52.443Z,56.98
2018-05-25T23:38:19.858Z,57.05
2018-05-25T23:40:47.268Z,57.18
2018-05-25T23:43:14.681Z,57.30
2018-05-25T23:45:42.096Z,57.15
2018-05-25T23:48:09.507Z,57.29
2018-05-25T23:50:36.922Z,57.38
2018-05-25T23:53:04.329Z,57.44
2018-05-25T23:55:31.753Z,57.64
2018-05-25T23:57:59.172Z,57.75
